sensor_id;sensor_type;location;lat;lon;timestamp;pressure;altitude;pressure_sealevel;temperature;humidity
39773;BME280;25451;51.960;6.250;2023-05-25T00:01:30;102436.66;;;12.37;60.75
39773;BME280;25451;51.960;6.250;2023-05-25T00:03:58;102434.53;;;12.32;60.63
39773;BME280;25451;51.960;6.250;2023-05-25T00:06:24;102443.28;;;12.29;60.98
39773;BME280;25451;51.960;6.250;2023-05-25T00:08:50;102433.72;;;12.19;60.90
39773;BME280;25451;51.960;6.250;2023-05-25T00:11:19;102447.75;;;12.24;60.81
39773;BME280;25451;51.960;6.250;2023-05-25T00:13:47;102435.22;;;12.15;61.10
39773;BME280;25451;51.960;6.250;2023-05-25T00:16:13;102448.44;;;12.19;61.19
39773;BME280;25451;51.960;6.250;2023-05-25T00:18:38;102449.25;;;12.20;61.20
39773;BME280;25451;51.960;6.250;2023-05-25T00:21:03;102443.09;;;12.18;61.30
39773;BME280;25451;51.960;6.250;2023-05-25T00:23:32;102437.34;;;12.13;61.35
39773;BME280;25451;51.960;6.250;2023-05-25T00:25:58;102441.00;;;12.13;61.28
39773;BME280;25451;51.960;6.250;2023-05-25T00:28:23;102445.66;;;12.13;61.46
39773;BME280;25451;51.960;6.250;2023-05-25T00:30:48;102439.06;;;12.07;61.52
39773;BME280;25451;51.960;6.250;2023-05-25T00:33:14;102445.88;;;12.11;61.74
39773;BME280;25451;51.960;6.250;2023-05-25T00:35:41;102442.03;;;12.12;61.71
39773;BME280;25451;51.960;6.250;2023-05-25T00:38:17;102444.56;;;12.14;61.38
39773;BME280;25451;51.960;6.250;2023-05-25T00:40:42;102442.44;;;12.16;61.75
39773;BME280;25451;51.960;6.250;2023-05-25T00:43:09;102432.69;;;12.07;61.50
39773;BME280;25451;51.960;6.250;2023-05-25T00:45:34;102441.41;;;12.17;61.46
39773;BME280;25451;51.960;6.250;2023-05-25T00:48:00;102450.56;;;12.17;61.62
39773;BME280;25451;51.960;6.250;2023-05-25T00:50:37;102444.16;;;12.17;61.58
39773;BME280;25451;51.960;6.250;2023-05-25T00:53:04;102449.69;;;12.17;61.52
39773;BME280;25451;51.960;6.250;2023-05-25T00:55:32;102446.06;;;12.16;61.35
39773;BME280;25451;51.960;6.250;2023-05-25T00:58:03;102426.75;;;12.03;61.33
39773;BME280;25451;51.960;6.250;2023-05-25T01:00:29;102440.34;;;12.11;61.72
39773;BME280;25451;51.960;6.250;2023-05-25T01:02:57;102443.94;;;12.12;61.85
39773;BME280;25451;51.960;6.250;2023-05-25T01:05:24;102436.50;;;12.06;61.87
39773;BME280;25451;51.960;6.250;2023-05-25T01:07:54;102444.41;;;12.09;61.77
39773;BME280;25451;51.960;6.250;2023-05-25T01:10:21;102439.50;;;12.04;62.04
39773;BME280;25451;51.960;6.250;2023-05-25T01:12:50;102442.47;;;12.03;61.76
39773;BME280;25451;51.960;6.250;2023-05-25T01:15:17;102445.66;;;12.00;61.83
39773;BME280;25451;51.960;6.250;2023-05-25T01:17:43;102418.44;;;11.84;61.71
39773;BME280;25451;51.960;6.250;2023-05-25T01:20:08;102448.44;;;12.00;62.04
39773;BME280;25451;51.960;6.250;2023-05-25T01:23:01;102450.34;;;11.99;62.24
39773;BME280;25451;51.960;6.250;2023-05-25T01:25:42;102444.63;;;11.88;62.02
39773;BME280;25451;51.960;6.250;2023-05-25T01:28:17;102439.53;;;11.85;61.74
39773;BME280;25451;51.960;6.250;2023-05-25T01:30:47;102463.78;;;11.96;62.15
39773;BME280;25451;51.960;6.250;2023-05-25T01:33:15;102471.03;;;11.97;61.77
39773;BME280;25451;51.960;6.250;2023-05-25T01:35:42;102475.69;;;11.96;61.94
39773;BME280;25451;51.960;6.250;2023-05-25T01:38:08;102455.03;;;11.86;61.88
39773;BME280;25451;51.960;6.250;2023-05-25T01:40:34;102471.44;;;11.94;61.92
39773;BME280;25451;51.960;6.250;2023-05-25T01:42:59;102474.66;;;11.91;62.02
39773;BME280;25451;51.960;6.250;2023-05-25T01:45:24;102480.19;;;11.91;61.90
39773;BME280;25451;51.960;6.250;2023-05-25T01:53:28;102489.34;;;11.85;61.90
39773;BME280;25451;51.960;6.250;2023-05-25T01:55:57;102482.94;;;11.84;62.01
39773;BME280;25451;51.960;6.250;2023-05-25T01:58:25;102489.75;;;11.82;61.89
39773;BME280;25451;51.960;6.250;2023-05-25T02:00:51;102485.47;;;11.79;62.01
39773;BME280;25451;51.960;6.250;2023-05-25T02:03:17;102482.72;;;11.73;62.18
39773;BME280;25451;51.960;6.250;2023-05-25T02:05:44;102479.31;;;11.71;62.24
39773;BME280;25451;51.960;6.250;2023-05-25T02:08:10;102487.63;;;11.71;62.26
39773;BME280;25451;51.960;6.250;2023-05-25T02:10:35;102480.16;;;11.71;62.24
39773;BME280;25451;51.960;6.250;2023-05-25T02:13:01;102468.22;;;11.64;62.05
39773;BME280;25451;51.960;6.250;2023-05-25T02:15:30;102479.94;;;11.66;62.28
39773;BME280;25451;51.960;6.250;2023-05-25T02:17:56;102482.03;;;11.64;62.26
39773;BME280;25451;51.960;6.250;2023-05-25T02:20:22;102490.56;;;11.62;62.27
39773;BME280;25451;51.960;6.250;2023-05-25T02:22:47;102491.81;;;11.60;62.43
39773;BME280;25451;51.960;6.250;2023-05-25T02:25:12;102476.50;;;11.57;62.74
39773;BME280;25451;51.960;6.250;2023-05-25T02:27:37;102485.03;;;11.56;62.28
39773;BME280;25451;51.960;6.250;2023-05-25T02:30:03;102490.09;;;11.52;62.42
39773;BME280;25451;51.960;6.250;2023-05-25T02:32:29;102488.41;;;11.51;62.25
39773;BME280;25451;51.960;6.250;2023-05-25T02:34:55;102480.34;;;11.50;62.37
39773;BME280;25451;51.960;6.250;2023-05-25T02:37:20;102487.13;;;11.47;62.28
39773;BME280;25451;51.960;6.250;2023-05-25T02:39:46;102479.22;;;11.44;62.59
39773;BME280;25451;51.960;6.250;2023-05-25T02:42:11;102476.91;;;11.41;62.64
39773;BME280;25451;51.960;6.250;2023-05-25T02:44:36;102472.44;;;11.34;62.42
39773;BME280;25451;51.960;6.250;2023-05-25T02:47:02;102480.94;;;11.39;62.67
39773;BME280;25451;51.960;6.250;2023-05-25T02:49:27;102473.91;;;11.36;62.39
39773;BME280;25451;51.960;6.250;2023-05-25T02:51:54;102478.16;;;11.32;62.44
39773;BME280;25451;51.960;6.250;2023-05-25T02:54:20;102481.56;;;11.34;62.74
39773;BME280;25451;51.960;6.250;2023-05-25T02:56:45;102485.63;;;11.32;62.55
39773;BME280;25451;51.960;6.250;2023-05-25T02:59:10;102489.66;;;11.29;62.56
39773;BME280;25451;51.960;6.250;2023-05-25T03:01:36;102491.75;;;11.27;62.86
39773;BME280;25451;51.960;6.250;2023-05-25T03:04:01;102490.69;;;11.22;62.70
39773;BME280;25451;51.960;6.250;2023-05-25T03:06:27;102494.28;;;11.22;62.94
39773;BME280;25451;51.960;6.250;2023-05-25T03:08:52;102496.41;;;11.20;62.74
39773;BME280;25451;51.960;6.250;2023-05-25T03:11:17;102490.47;;;11.17;62.89
39773;BME280;25451;51.960;6.250;2023-05-25T03:13:42;102498.97;;;11.15;62.79
39773;BME280;25451;51.960;6.250;2023-05-25T03:16:08;102484.88;;;11.04;62.81
39773;BME280;25451;51.960;6.250;2023-05-25T03:18:33;102486.56;;;10.98;62.88
39773;BME280;25451;51.960;6.250;2023-05-25T03:20:58;102510.84;;;11.09;62.94
39773;BME280;25451;51.960;6.250;2023-05-25T03:23:24;102511.03;;;11.08;62.95
39773;BME280;25451;51.960;6.250;2023-05-25T03:25:49;102500.19;;;11.06;62.96
39773;BME280;25451;51.960;6.250;2023-05-25T03:28:15;102505.94;;;11.05;63.19
39773;BME280;25451;51.960;6.250;2023-05-25T03:30:40;102504.41;;;10.96;62.85
39773;BME280;25451;51.960;6.250;2023-05-25T03:33:05;102506.09;;;10.90;63.08
39773;BME280;25451;51.960;6.250;2023-05-25T03:35:31;102519.94;;;10.97;63.20
39773;BME280;25451;51.960;6.250;2023-05-25T03:37:56;102529.69;;;10.93;63.22
39773;BME280;25451;51.960;6.250;2023-05-25T03:40:21;102527.56;;;10.95;63.30
39773;BME280;25451;51.960;6.250;2023-05-25T03:42:46;102513.06;;;10.86;63.39
39773;BME280;25451;51.960;6.250;2023-05-25T03:45:12;102532.66;;;10.91;63.32
39773;BME280;25451;51.960;6.250;2023-05-25T03:47:37;102530.94;;;10.90;63.35
39773;BME280;25451;51.960;6.250;2023-05-25T03:50:03;102525.84;;;10.87;63.43
39773;BME280;25451;51.960;6.250;2023-05-25T03:52:29;102541.13;;;10.90;63.36
39773;BME280;25451;51.960;6.250;2023-05-25T03:54:55;102533.06;;;10.88;63.57
39773;BME280;25451;51.960;6.250;2023-05-25T03:57:20;102533.94;;;10.89;63.34
39773;BME280;25451;51.960;6.250;2023-05-25T03:59:46;102531.38;;;10.87;63.34
39773;BME280;25451;51.960;6.250;2023-05-25T04:02:11;102528.78;;;10.85;63.57
39773;BME280;25451;51.960;6.250;2023-05-25T04:04:36;102524.34;;;10.84;63.73
39773;BME280;25451;51.960;6.250;2023-05-25T04:07:06;102528.78;;;10.85;63.55
39773;BME280;25451;51.960;6.250;2023-05-25T04:09:31;102531.13;;;10.82;63.69
39773;BME280;25451;51.960;6.250;2023-05-25T04:11:57;102528.34;;;10.82;63.59
39773;BME280;25451;51.960;6.250;2023-05-25T04:14:22;102526.22;;;10.77;63.81
39773;BME280;25451;51.960;6.250;2023-05-25T04:16:48;102528.13;;;10.77;63.84
39773;BME280;25451;51.960;6.250;2023-05-25T04:19:13;102533.66;;;10.77;63.83
39773;BME280;25451;51.960;6.250;2023-05-25T04:21:38;102537.91;;;10.79;63.87
39773;BME280;25451;51.960;6.250;2023-05-25T04:24:04;102536.00;;;10.80;64.06
39773;BME280;25451;51.960;6.250;2023-05-25T04:26:30;102543.88;;;10.83;63.93
39773;BME280;25451;51.960;6.250;2023-05-25T04:28:56;102539.19;;;10.83;64.00
39773;BME280;25451;51.960;6.250;2023-05-25T04:31:22;102541.78;;;10.85;64.02
39773;BME280;25451;51.960;6.250;2023-05-25T04:33:48;102537.72;;;10.88;64.30
39773;BME280;25451;51.960;6.250;2023-05-25T04:36:14;102548.16;;;10.92;64.19
39773;BME280;25451;51.960;6.250;2023-05-25T04:38:39;102547.78;;;10.95;64.23
39773;BME280;25451;51.960;6.250;2023-05-25T04:41:06;102539.66;;;10.94;64.37
39773;BME280;25451;51.960;6.250;2023-05-25T04:43:31;102541.00;;;11.04;64.06
39773;BME280;25451;51.960;6.250;2023-05-25T04:45:58;102545.69;;;11.10;64.20
39773;BME280;25451;51.960;6.250;2023-05-25T04:48:24;102552.13;;;11.17;63.93
39773;BME280;25451;51.960;6.250;2023-05-25T04:50:52;102557.69;;;11.24;64.14
39773;BME280;25451;51.960;6.250;2023-05-25T04:53:20;102552.16;;;11.30;64.14
39773;BME280;25451;51.960;6.250;2023-05-25T04:55:45;102556.03;;;11.36;63.90
39773;BME280;25451;51.960;6.250;2023-05-25T04:58:10;102551.34;;;11.43;63.93
39773;BME280;25451;51.960;6.250;2023-05-25T05:00:37;102561.16;;;11.52;64.05
39773;BME280;25451;51.960;6.250;2023-05-25T05:03:04;102564.78;;;11.59;63.89
39773;BME280;25451;51.960;6.250;2023-05-25T05:05:29;102562.03;;;11.65;63.99
39773;BME280;25451;51.960;6.250;2023-05-25T05:07:54;102569.13;;;11.75;64.08
39773;BME280;25451;51.960;6.250;2023-05-25T05:10:20;102568.94;;;11.83;63.99
39773;BME280;25451;51.960;6.250;2023-05-25T05:12:45;102582.56;;;11.91;63.84
39773;BME280;25451;51.960;6.250;2023-05-25T05:15:10;102587.25;;;11.97;63.84
39773;BME280;25451;51.960;6.250;2023-05-25T05:17:36;102580.44;;;12.06;63.77
39773;BME280;25451;51.960;6.250;2023-05-25T05:20:01;102578.94;;;12.16;63.66
39773;BME280;25451;51.960;6.250;2023-05-25T05:22:28;102581.28;;;12.26;63.91
39773;BME280;25451;51.960;6.250;2023-05-25T05:24:54;102587.25;;;12.36;63.98
39773;BME280;25451;51.960;6.250;2023-05-25T05:27:19;102582.16;;;12.46;63.67
39773;BME280;25451;51.960;6.250;2023-05-25T05:29:44;102586.38;;;12.55;63.86
39773;BME280;25451;51.960;6.250;2023-05-25T05:32:10;102586.81;;;12.65;63.56
39773;BME280;25451;51.960;6.250;2023-05-25T05:34:35;102595.75;;;12.74;63.80
39773;BME280;25451;51.960;6.250;2023-05-25T05:37:01;102593.38;;;12.84;63.65
39773;BME280;25451;51.960;6.250;2023-05-25T05:39:26;102601.22;;;12.93;63.79
39773;BME280;25451;51.960;6.250;2023-05-25T05:41:53;102595.25;;;13.03;63.54
39773;BME280;25451;51.960;6.250;2023-05-25T05:44:21;102606.78;;;13.13;63.36
39773;BME280;25451;51.960;6.250;2023-05-25T05:46:47;102609.06;;;13.22;63.35
39773;BME280;25451;51.960;6.250;2023-05-25T05:49:12;102601.56;;;13.29;63.46
39773;BME280;25451;51.960;6.250;2023-05-25T05:51:37;102610.50;;;13.38;63.49
39773;BME280;25451;51.960;6.250;2023-05-25T05:54:03;102608.97;;;13.42;63.37
39773;BME280;25451;51.960;6.250;2023-05-25T05:56:28;102611.50;;;13.50;63.44
39773;BME280;25451;51.960;6.250;2023-05-25T05:58:54;102619.19;;;13.55;63.24
39773;BME280;25451;51.960;6.250;2023-05-25T06:01:20;102597.88;;;13.49;63.45
39773;BME280;25451;51.960;6.250;2023-05-25T06:03:46;102612.50;;;13.62;63.55
39773;BME280;25451;51.960;6.250;2023-05-25T06:06:12;102622.53;;;13.70;63.30
39773;BME280;25451;51.960;6.250;2023-05-25T06:08:37;102617.59;;;13.72;63.52
39773;BME280;25451;51.960;6.250;2023-05-25T06:11:02;102617.16;;;13.75;63.65
39773;BME280;25451;51.960;6.250;2023-05-25T06:13:27;102624.81;;;13.79;63.76
39773;BME280;25451;51.960;6.250;2023-05-25T06:15:53;102624.59;;;13.81;63.79
39773;BME280;25451;51.960;6.250;2023-05-25T06:18:18;102629.94;;;13.82;63.87
39773;BME280;25451;51.960;6.250;2023-05-25T06:20:43;102604.56;;;13.72;63.85
39773;BME280;25451;51.960;6.250;2023-05-25T06:23:09;102626.69;;;13.85;63.89
39773;BME280;25451;51.960;6.250;2023-05-25T06:25:36;102637.56;;;13.87;64.25
39773;BME280;25451;51.960;6.250;2023-05-25T06:28:01;102636.50;;;13.88;64.22
39773;BME280;25451;51.960;6.250;2023-05-25T06:30:27;102639.44;;;13.93;64.14
39773;BME280;25451;51.960;6.250;2023-05-25T06:32:52;102640.94;;;13.95;64.13
39773;BME280;25451;51.960;6.250;2023-05-25T06:35:17;102630.47;;;13.97;64.03
39773;BME280;25451;51.960;6.250;2023-05-25T06:37:46;102637.50;;;14.00;63.95
39773;BME280;25451;51.960;6.250;2023-05-25T06:40:13;102638.75;;;14.04;64.08
39773;BME280;25451;51.960;6.250;2023-05-25T06:42:38;102623.44;;;13.95;63.98
39773;BME280;25451;51.960;6.250;2023-05-25T06:45:04;102632.56;;;14.02;63.93
39773;BME280;25451;51.960;6.250;2023-05-25T06:47:29;102647.88;;;14.11;63.91
39773;BME280;25451;51.960;6.250;2023-05-25T06:49:55;102627.03;;;14.02;63.99
39773;BME280;25451;51.960;6.250;2023-05-25T06:52:20;102650.41;;;14.19;64.01
39773;BME280;25451;51.960;6.250;2023-05-25T06:54:46;102632.69;;;14.13;63.86
39773;BME280;25451;51.960;6.250;2023-05-25T06:57:11;102654.22;;;14.31;63.80
39773;BME280;25451;51.960;6.250;2023-05-25T06:59:36;102654.13;;;14.38;63.57
39773;BME280;25451;51.960;6.250;2023-05-25T07:02:01;102652.41;;;14.43;63.70
39773;BME280;25451;51.960;6.250;2023-05-25T07:04:27;102660.66;;;14.50;63.60
39773;BME280;25451;51.960;6.250;2023-05-25T07:06:52;102649.97;;;14.53;63.30
39773;BME280;25451;51.960;6.250;2023-05-25T07:09:18;102654.78;;;14.64;63.37
39773;BME280;25451;51.960;6.250;2023-05-25T07:11:43;102662.19;;;14.70;63.23
39773;BME280;25451;51.960;6.250;2023-05-25T07:14:08;102657.44;;;14.77;63.04
39773;BME280;25451;51.960;6.250;2023-05-25T07:16:34;102657.59;;;14.82;62.98
39773;BME280;25451;51.960;6.250;2023-05-25T07:18:59;102651.34;;;14.87;63.10
39773;BME280;25451;51.960;6.250;2023-05-25T07:21:25;102652.97;;;14.94;62.80
39773;BME280;25451;51.960;6.250;2023-05-25T07:23:50;102658.97;;;14.98;62.69
39773;BME280;25451;51.960;6.250;2023-05-25T07:26:16;102661.75;;;14.98;62.76
39773;BME280;25451;51.960;6.250;2023-05-25T07:28:41;102658.72;;;15.00;62.94
39773;BME280;25451;51.960;6.250;2023-05-25T07:31:08;102652.97;;;14.94;62.56
39773;BME280;25451;51.960;6.250;2023-05-25T07:33:33;102665.69;;;15.09;62.59
39773;BME280;25451;51.960;6.250;2023-05-25T07:35:59;102672.50;;;15.13;62.51
39773;BME280;25451;51.960;6.250;2023-05-25T07:38:24;102672.41;;;15.19;62.32
39773;BME280;25451;51.960;6.250;2023-05-25T07:40:49;102665.47;;;15.28;62.28
39773;BME280;25451;51.960;6.250;2023-05-25T07:43:16;102676.69;;;15.40;62.08
39773;BME280;25451;51.960;6.250;2023-05-25T07:45:41;102674.72;;;15.47;61.94
39773;BME280;25451;51.960;6.250;2023-05-25T07:48:07;102670.53;;;15.56;61.97
39773;BME280;25451;51.960;6.250;2023-05-25T07:50:33;102669.38;;;15.63;61.85
39773;BME280;25451;51.960;6.250;2023-05-25T07:52:58;102678.47;;;15.70;61.76
39773;BME280;25451;51.960;6.250;2023-05-25T07:55:25;102674.13;;;15.74;61.58
39773;BME280;25451;51.960;6.250;2023-05-25T07:57:51;102675.38;;;15.78;61.56
39773;BME280;25451;51.960;6.250;2023-05-25T08:00:17;102691.06;;;15.91;61.48
39773;BME280;25451;51.960;6.250;2023-05-25T08:02:42;102696.91;;;16.01;61.26
39773;BME280;25451;51.960;6.250;2023-05-25T08:05:08;102690.88;;;16.04;61.14
39773;BME280;25451;51.960;6.250;2023-05-25T08:07:34;102703.31;;;16.20;60.95
39773;BME280;25451;51.960;6.250;2023-05-25T08:10:00;102707.06;;;16.25;60.78
39773;BME280;25451;51.960;6.250;2023-05-25T08:12:26;102713.25;;;16.27;60.73
39773;BME280;25451;51.960;6.250;2023-05-25T08:14:51;102717.34;;;16.25;60.72
39773;BME280;25451;51.960;6.250;2023-05-25T08:17:18;102712.72;;;16.19;60.81
39773;BME280;25451;51.960;6.250;2023-05-25T08:19:43;102703.75;;;16.17;60.88
39773;BME280;25451;51.960;6.250;2023-05-25T08:22:08;102703.47;;;16.07;60.81
39773;BME280;25451;51.960;6.250;2023-05-25T08:24:34;102712.44;;;16.09;60.94
39773;BME280;25451;51.960;6.250;2023-05-25T08:26:59;102710.41;;;16.04;60.91
39773;BME280;25451;51.960;6.250;2023-05-25T08:29:26;102720.31;;;16.00;60.82
39773;BME280;25451;51.960;6.250;2023-05-25T08:31:51;102712.16;;;15.99;60.47
39773;BME280;25451;51.960;6.250;2023-05-25T08:34:16;102718.34;;;16.01;60.86
39773;BME280;25451;51.960;6.250;2023-05-25T08:36:41;102714.72;;;16.00;60.68
39773;BME280;25451;51.960;6.250;2023-05-25T08:39:08;102710.94;;;15.95;60.69
39773;BME280;25451;51.960;6.250;2023-05-25T08:41:35;102721.63;;;15.98;60.75
39773;BME280;25451;51.960;6.250;2023-05-25T08:44:01;102712.16;;;15.99;60.63
39773;BME280;25451;51.960;6.250;2023-05-25T08:46:30;102717.28;;;16.02;60.57
39773;BME280;25451;51.960;6.250;2023-05-25T08:49:09;102713.78;;;16.06;60.54
39773;BME280;25451;51.960;6.250;2023-05-25T08:51:37;102725.69;;;16.13;60.53
39773;BME280;25451;51.960;6.250;2023-05-25T08:54:12;102708.34;;;16.11;60.33
39773;BME280;25451;51.960;6.250;2023-05-25T08:57:14;102730.69;;;16.23;60.24
39773;BME280;25451;51.960;6.250;2023-05-25T09:00:02;102726.22;;;16.22;60.18
39773;BME280;25451;51.960;6.250;2023-05-25T09:05:14;102725.59;;;16.20;60.20
39773;BME280;25451;51.960;6.250;2023-05-25T09:07:42;102725.34;;;16.21;60.19
39773;BME280;25451;51.960;6.250;2023-05-25T09:10:07;102720.63;;;16.22;60.09
39773;BME280;25451;51.960;6.250;2023-05-25T09:12:33;102725.97;;;16.23;59.94
39773;BME280;25451;51.960;6.250;2023-05-25T09:15:00;102733.88;;;16.26;60.05
39773;BME280;25451;51.960;6.250;2023-05-25T09:17:25;102723.41;;;16.22;60.07
39773;BME280;25451;51.960;6.250;2023-05-25T09:19:51;102732.31;;;16.30;60.07
39773;BME280;25451;51.960;6.250;2023-05-25T09:22:16;102728.94;;;16.40;60.04
39773;BME280;25451;51.960;6.250;2023-05-25T09:24:42;102721.25;;;16.53;59.86
39773;BME280;25451;51.960;6.250;2023-05-25T09:27:12;102723.13;;;16.71;59.51
39773;BME280;25451;51.960;6.250;2023-05-25T09:29:37;102711.88;;;16.78;59.34
39773;BME280;25451;51.960;6.250;2023-05-25T09:32:06;102732.97;;;16.97;59.17
39773;BME280;25451;51.960;6.250;2023-05-25T09:34:31;102739.53;;;17.02;59.17
39773;BME280;25451;51.960;6.250;2023-05-25T09:37:02;102734.44;;;17.11;58.90
39773;BME280;25451;51.960;6.250;2023-05-25T09:39:28;102733.13;;;17.13;59.00
39773;BME280;25451;51.960;6.250;2023-05-25T09:41:55;102737.72;;;17.19;59.00
39773;BME280;25451;51.960;6.250;2023-05-25T09:44:21;102735.31;;;17.23;58.79
39773;BME280;25451;51.960;6.250;2023-05-25T09:46:47;102726.44;;;17.26;58.93
39773;BME280;25451;51.960;6.250;2023-05-25T09:49:12;102729.34;;;17.31;59.04
39773;BME280;25451;51.960;6.250;2023-05-25T09:51:37;102725.84;;;17.35;58.79
39773;BME280;25451;51.960;6.250;2023-05-25T09:54:03;102733.50;;;17.40;58.70
39773;BME280;25451;51.960;6.250;2023-05-25T09:56:31;102737.63;;;17.49;58.54
39773;BME280;25451;51.960;6.250;2023-05-25T09:58:57;102724.75;;;17.48;58.42
39773;BME280;25451;51.960;6.250;2023-05-25T10:01:23;102730.09;;;17.61;58.41
39773;BME280;25451;51.960;6.250;2023-05-25T10:03:49;102724.88;;;17.65;58.13
39773;BME280;25451;51.960;6.250;2023-05-25T10:06:21;102715.25;;;17.72;58.13
39773;BME280;25451;51.960;6.250;2023-05-25T10:08:48;102729.19;;;17.84;57.66
39773;BME280;25451;51.960;6.250;2023-05-25T10:11:14;102730.78;;;17.91;57.52
39773;BME280;25451;51.960;6.250;2023-05-25T10:13:43;102724.66;;;17.94;57.58
39773;BME280;25451;51.960;6.250;2023-05-25T10:16:10;102729.78;;;17.97;57.35
39773;BME280;25451;51.960;6.250;2023-05-25T10:18:46;102724.53;;;18.01;57.42
39773;BME280;25451;51.960;6.250;2023-05-25T10:21:15;102720.63;;;18.02;57.15
39773;BME280;25451;51.960;6.250;2023-05-25T10:23:47;102715.28;;;18.00;57.10
39773;BME280;25451;51.960;6.250;2023-05-25T10:26:18;102690.19;;;17.89;57.06
39773;BME280;25451;51.960;6.250;2023-05-25T10:28:49;102712.00;;;18.03;56.94
39773;BME280;25451;51.960;6.250;2023-05-25T10:31:15;102716.28;;;18.06;56.87
39773;BME280;25451;51.960;6.250;2023-05-25T10:33:42;102717.69;;;18.08;56.35
39773;BME280;25451;51.960;6.250;2023-05-25T10:36:08;102706.88;;;18.12;56.40
39773;BME280;25451;51.960;6.250;2023-05-25T10:38:34;102714.50;;;18.16;56.10
39773;BME280;25451;51.960;6.250;2023-05-25T10:41:03;102723.09;;;18.27;55.71
39773;BME280;25451;51.960;6.250;2023-05-25T10:43:29;102718.53;;;18.37;55.61
39773;BME280;25451;51.960;6.250;2023-05-25T10:45:55;102727.41;;;18.46;55.11
39773;BME280;25451;51.960;6.250;2023-05-25T10:48:21;102720.22;;;18.50;54.79
39773;BME280;25451;51.960;6.250;2023-05-25T10:50:50;102729.19;;;18.52;54.46
39773;BME280;25451;51.960;6.250;2023-05-25T10:53:17;102708.78;;;18.51;54.13
39773;BME280;25451;51.960;6.250;2023-05-25T10:56:00;102716.41;;;18.56;54.06
39773;BME280;25451;51.960;6.250;2023-05-25T10:58:27;102715.66;;;18.60;53.80
39773;BME280;25451;51.960;6.250;2023-05-25T11:01:01;102705.91;;;18.63;53.47
39773;BME280;25451;51.960;6.250;2023-05-25T11:06:11;102703.34;;;18.61;53.03
39773;BME280;25451;51.960;6.250;2023-05-25T11:08:54;102703.72;;;18.65;52.91
39773;BME280;25451;51.960;6.250;2023-05-25T11:14:04;102709.31;;;18.65;52.92
39773;BME280;25451;51.960;6.250;2023-05-25T11:19:00;102710.50;;;18.69;52.65
39773;BME280;25451;51.960;6.250;2023-05-25T11:24:00;102717.38;;;18.78;52.55
39773;BME280;25451;51.960;6.250;2023-05-25T11:26:28;102714.06;;;18.81;52.27
39773;BME280;25451;51.960;6.250;2023-05-25T11:28:55;102694.91;;;18.73;52.09
39773;BME280;25451;51.960;6.250;2023-05-25T11:31:30;102710.25;;;18.87;52.35
39773;BME280;25451;51.960;6.250;2023-05-25T11:33:57;102710.91;;;18.94;52.11
39773;BME280;25451;51.960;6.250;2023-05-25T11:36:23;102700.00;;;18.92;52.06
39773;BME280;25451;51.960;6.250;2023-05-25T11:38:49;102703.22;;;19.01;51.90
39773;BME280;25451;51.960;6.250;2023-05-25T11:41:17;102716.34;;;19.00;51.92
39773;BME280;25451;51.960;6.250;2023-05-25T11:43:49;102704.22;;;18.95;51.72
39773;BME280;25451;51.960;6.250;2023-05-25T11:46:16;102705.00;;;18.90;51.68
39773;BME280;25451;51.960;6.250;2023-05-25T11:48:53;102692.94;;;18.90;51.80
39773;BME280;25451;51.960;6.250;2023-05-25T11:51:23;102693.03;;;18.95;51.36
39773;BME280;25451;51.960;6.250;2023-05-25T11:53:49;102684.53;;;18.90;51.37
39773;BME280;25451;51.960;6.250;2023-05-25T11:56:15;102696.44;;;18.97;51.25
39773;BME280;25451;51.960;6.250;2023-05-25T11:58:41;102690.31;;;19.00;51.15
39773;BME280;25451;51.960;6.250;2023-05-25T12:01:19;102681.31;;;18.98;50.96
39773;BME280;25451;51.960;6.250;2023-05-25T12:03:45;102678.34;;;18.88;50.80
39773;BME280;25451;51.960;6.250;2023-05-25T12:06:27;102691.09;;;18.95;50.82
39773;BME280;25451;51.960;6.250;2023-05-25T12:08:54;102686.59;;;18.94;50.63
39773;BME280;25451;51.960;6.250;2023-05-25T12:11:31;102677.94;;;18.96;50.61
39773;BME280;25451;51.960;6.250;2023-05-25T12:13:57;102679.38;;;18.98;50.59
39773;BME280;25451;51.960;6.250;2023-05-25T12:16:23;102664.72;;;18.91;50.43
39773;BME280;25451;51.960;6.250;2023-05-25T12:18:50;102670.22;;;19.03;50.43
39773;BME280;25451;51.960;6.250;2023-05-25T12:21:16;102671.13;;;19.09;50.13
39773;BME280;25451;51.960;6.250;2023-05-25T12:23:41;102676.47;;;19.10;50.05
39773;BME280;25451;51.960;6.250;2023-05-25T12:26:12;102672.56;;;19.11;50.08
39773;BME280;25451;51.960;6.250;2023-05-25T12:28:38;102680.13;;;19.11;50.16
39773;BME280;25451;51.960;6.250;2023-05-25T12:31:19;102666.56;;;19.02;50.12
39773;BME280;25451;51.960;6.250;2023-05-25T12:33:45;102668.59;;;19.07;50.24
39773;BME280;25451;51.960;6.250;2023-05-25T12:36:10;102667.56;;;19.13;49.96
39773;BME280;25451;51.960;6.250;2023-05-25T12:38:36;102672.63;;;19.16;50.13
39773;BME280;25451;51.960;6.250;2023-05-25T12:41:05;102673.50;;;19.17;49.86
39773;BME280;25451;51.960;6.250;2023-05-25T12:43:40;102684.44;;;19.18;49.78
39773;BME280;25451;51.960;6.250;2023-05-25T12:46:07;102661.38;;;19.11;49.86
39773;BME280;25451;51.960;6.250;2023-05-25T12:48:33;102669.06;;;19.21;49.75
39773;BME280;25451;51.960;6.250;2023-05-25T12:50:58;102671.09;;;19.25;49.60
39773;BME280;25451;51.960;6.250;2023-05-25T12:53:23;102664.97;;;19.28;49.43
39773;BME280;25451;51.960;6.250;2023-05-25T12:55:49;102672.28;;;19.29;49.23
39773;BME280;25451;51.960;6.250;2023-05-25T12:58:27;102660.22;;;19.29;49.36
39773;BME280;25451;51.960;6.250;2023-05-25T13:00:52;102670.94;;;19.32;49.37
39773;BME280;25451;51.960;6.250;2023-05-25T13:03:18;102669.59;;;19.34;49.14
39773;BME280;25451;51.960;6.250;2023-05-25T13:05:44;102669.59;;;19.34;49.22
39773;BME280;25451;51.960;6.250;2023-05-25T13:08:10;102650.06;;;19.23;49.23